Terminal Aerodrome Forecast
Issued by NWS Atlanta, GA

Home | Current Version | Previous Version | Text Only | Print | Product List | Glossary On
Versions: 1 2 3 4 5 6 7 8 9 10 11 12 13 14 15 16 17 18 19 20 21 22 23 24 25 26 27 28 29 30 31 32 33 34 35 36 37 38 39 40
196
FTUS42 KFFC 051022 AAC
TAFATL
TAF AMD
KATL 051022Z 0510/0612 31011KT P6SM SCT018
     FM051200 31012G22KT P6SM SCT025 SCT060
     FM051400 31018G28KT P6SM BKN050
     FM051800 31020G30KT P6SM BKN050
     FM060200 31015G24KT P6SM SCT060 SCT250
     FM060600 31014G20KT P6SM FEW250=

USA.gov is the U.S. government's official web portal to all federal, state and local government web resources and services.